Time;durP1;ratioP1;P1;durP2;ratioP2;P2;SDS_P1;SDS_P2;PMS_P1;PMS_P2;Temp;Humidity;BMP_temperature;BMP_pressure;BME280_temperature;BME280_humidity;BME280_pressure;Samples;Min_cycle;Max_cycle;Signal;HPM_P1;HPM_P2
2021/07/07 00:00:00;;;;;;;6.12;4.70;;;;;;;30.26;40.58;100986.78;144993;633;6002;-81
2021/07/07 00:02:26;;;;;;;5.40;4.78;;;;;;;30.18;40.95;100980.94;144993;585;6002;-81
2021/07/07 00:04:53;;;;;;;5.30;4.80;;;;;;;30.14;40.70;100979.34;144993;573;6002;-81
2021/07/07 00:07:20;;;;;;;7.85;5.57;;;;;;;30.11;40.99;100983.03;144993;589;6002;-82
2021/07/07 00:09:46;;;;;;;4.90;4.25;;;;;;;30.08;40.69;100982.31;144993;581;6002;-80
2021/07/07 00:12:13;;;;;;;6.00;4.80;;;;;;;30.06;40.57;100978.84;144993;569;6002;-81
2021/07/07 00:14:39;;;;;;;6.35;4.93;;;;;;;30.04;40.93;100978.91;144993;595;6002;-82
2021/07/07 00:17:06;;;;;;;5.28;4.68;;;;;;;30.02;40.44;100979.00;144992;644;6002;-81
2021/07/07 00:19:32;;;;;;;5.47;4.32;;;;;;;30.03;40.32;100972.72;144992;607;6002;-81
2021/07/07 00:21:59;;;;;;;6.53;4.90;;;;;;;30.05;40.64;100972.63;144992;591;6002;-82
2021/07/07 00:24:26;;;;;;;5.70;4.57;;;;;;;29.97;38.79;100974.78;144992;565;6002;-82
2021/07/07 00:26:53;;;;;;;4.97;4.57;;;;;;;29.93;40.27;100984.78;144992;575;6002;-81
2021/07/07 00:29:20;;;;;;;4.97;4.57;;;;;;;29.92;40.04;100982.19;144992;668;6002;-81
2021/07/07 00:31:46;;;;;;;4.72;4.30;;;;;;;29.89;40.18;100985.87;144993;600;6002;-81
2021/07/07 00:34:12;;;;;;;5.20;4.70;;;;;;;29.87;40.26;100985.06;144993;585;6002;-82
2021/07/07 00:36:39;;;;;;;4.75;4.32;;;;;;;29.85;40.09;100987.81;144993;593;6002;-81
2021/07/07 00:39:05;;;;;;;6.00;4.87;;;;;;;29.84;39.95;100987.88;144993;621;6002;-81
2021/07/07 00:41:32;;;;;;;6.43;4.82;;;;;;;29.83;40.20;100983.50;144993;662;6002;-80
2021/07/07 00:44:10;;;;;;;6.45;4.85;;;;;;;29.83;40.04;100991.50;144993;692;6002;-80
2021/07/07 00:46:37;;;;;;;5.10;4.70;;;;;;;29.89;39.74;100996.59;144993;579;6002;-80
2021/07/07 00:49:05;;;;;;;7.65;4.97;;;;;;;29.91;39.72;101005.41;144993;655;6002;-81
2021/07/07 00:51:35;;;;;;;5.78;4.70;;;;;;;29.94;40.05;100996.34;144993;656;6002;-80
2021/07/07 00:54:01;;;;;;;5.28;4.78;;;;;;;29.96;39.60;100995.34;144993;594;6002;-82
2021/07/07 00:56:31;;;;;;;5.05;4.65;;;;;;;29.95;39.69;101000.75;144993;599;6002;-80
2021/07/07 00:58:59;;;;;;;5.70;4.82;;;;;;;29.93;39.48;100998.16;144992;642;6002;-81
2021/07/07 01:01:26;;;;;;;5.28;4.78;;;;;;;29.92;39.69;101000.91;144993;569;6002;-80
2021/07/07 01:03:52;;;;;;;5.07;4.68;;;;;;;29.89;39.59;100998.38;144993;597;6002;-81
2021/07/07 01:06:19;;;;;;;5.50;4.90;;;;;;;29.84;39.54;101007.50;144993;589;6002;-80
2021/07/07 01:08:45;;;;;;;5.30;4.80;;;;;;;29.77;39.59;101011.34;144993;636;6002;-79
2021/07/07 01:11:12;;;;;;;4.95;4.50;;;;;;;29.76;39.56;101003.41;144993;581;6002;-80
2021/07/07 01:13:41;;;;;;;4.87;4.47;;;;;;;29.75;39.34;101009.66;144993;662;6002;-81
2021/07/07 01:16:08;;;;;;;5.15;4.75;;;;;;;29.74;39.27;101010.63;144993;680;6002;-80
2021/07/07 01:18:35;;;;;;;5.68;5.00;;;;;;;29.73;39.10;101006.22;144993;583;6002;-80
2021/07/07 01:21:02;;;;;;;6.50;4.87;;;;;;;29.72;39.06;101001.81;144993;642;6002;-81
2021/07/07 01:23:30;;;;;;;5.85;4.78;;;;;;;29.68;39.53;101011.75;144993;709;6002;-81
2021/07/07 01:25:57;;;;;;;6.53;4.82;;;;;;;29.64;39.33;101005.69;144994;595;5002;-80
2021/07/07 01:28:24;;;;;;;6.57;5.07;;;;;;;29.58;39.55;101008.66;144994;572;5002;-80
2021/07/07 01:30:50;;;;;;;5.37;4.87;;;;;;;29.56;39.23;101004.28;144994;585;5002;-80
2021/07/07 01:33:16;;;;;;;5.75;5.07;;;;;;;29.55;39.43;101002.56;144994;581;5002;-80
2021/07/07 01:35:43;;;;;;;4.70;4.30;;;;;;;29.55;39.53;101011.47;144994;585;5002;-81
2021/07/07 01:38:10;;;;;;;5.20;4.70;;;;;;;29.52;39.59;101005.38;144993;650;5002;-81
2021/07/07 01:40:38;;;;;;;5.57;4.70;;;;;;;29.51;39.41;101007.19;144994;577;5002;-81
2021/07/07 01:43:06;;;;;;;6.03;4.60;;;;;;;29.51;39.52;101009.00;144994;598;5002;-80
2021/07/07 01:45:33;;;;;;;6.60;5.00;;;;;;;29.53;39.32;101012.47;144994;563;5002;-80
2021/07/07 01:47:59;;;;;;;5.72;5.03;;;;;;;29.53;39.30;101008.00;144994;591;5002;-80
2021/07/07 01:50:26;;;;;;;5.57;5.07;;;;;;;29.53;39.58;101007.13;144994;570;5002;-80
2021/07/07 01:52:55;;;;;;;5.07;4.57;;;;;;;29.52;39.63;101003.56;144994;595;5002;-81
2021/07/07 01:55:22;;;;;;;5.45;4.90;;;;;;;29.51;39.42;101004.53;144994;653;5002;-81
2021/07/07 01:57:49;;;;;;;7.40;5.45;;;;;;;29.51;39.38;101007.19;144994;599;5002;-81
2021/07/07 02:00:24;;;;;;;6.43;5.15;;;;;;;29.51;39.56;101003.63;144994;592;5002;-79
2021/07/07 02:02:52;;;;;;;7.60;5.10;;;;;;;29.49;39.38;101011.72;144993;645;5002;-81
2021/07/07 02:05:24;;;;;;;7.12;5.43;;;;;;;29.48;39.73;101016.22;144994;592;5002;-81
2021/07/07 02:07:51;;;;;;;6.68;5.00;;;;;;;29.48;39.78;101012.69;144994;566;5002;-80
2021/07/07 02:10:18;;;;;;;6.57;4.97;;;;;;;29.47;39.61;101008.25;144994;553;5002;-81
2021/07/07 02:12:45;;;;;;;9.07;5.55;;;;;;;29.48;39.55;101020.72;144994;654;5002;-81
2021/07/07 02:15:16;;;;;;;9.85;5.30;;;;;;;29.45;39.73;101015.50;144994;582;5002;-80
2021/07/07 02:17:44;;;;;;;8.55;5.43;;;;;;;29.42;39.88;101018.31;144994;577;5002;-80
2021/07/07 02:20:12;;;;;;;10.35;5.50;;;;;;;29.36;39.85;101015.91;144994;665;5002;-81
2021/07/07 02:22:39;;;;;;;7.25;5.22;;;;;;;29.25;40.10;101014.56;144994;569;5002;-80
2021/07/07 02:25:12;;;;;;;8.45;5.57;;;;;;;29.17;40.07;101018.47;144994;708;5002;-81
2021/07/07 02:27:39;;;;;;;9.88;5.10;;;;;;;29.18;40.37;101020.22;144994;609;5002;-81
2021/07/07 02:30:08;;;;;;;6.87;5.93;;;;;;;29.18;40.51;101017.56;144994;594;5002;-81
2021/07/07 02:32:35;;;;;;;10.13;5.43;;;;;;;29.17;40.36;101019.34;144994;587;5002;-80
2021/07/07 02:35:04;;;;;;;8.43;5.30;;;;;;;29.19;40.45;101013.97;144994;652;5002;-81
2021/07/07 02:37:30;;;;;;;8.02;5.35;;;;;;;29.20;40.26;101019.25;144994;591;5002;-81
2021/07/07 02:39:56;;;;;;;8.07;5.37;;;;;;;29.22;40.31;101025.38;144994;582;5002;-81
2021/07/07 02:42:23;;;;;;;6.62;5.20;;;;;;;29.24;39.93;101017.28;144994;597;5002;-81
2021/07/07 02:44:49;;;;;;;5.40;4.90;;;;;;;29.24;39.91;101015.50;144994;608;5002;-80
2021/07/07 02:47:16;;;;;;;4.93;4.53;;;;;;;29.24;39.79;101022.63;144994;624;5002;-80
2021/07/07 02:49:42;;;;;;;8.38;5.57;;;;;;;29.25;39.49;101024.38;144994;655;5002;-81
2021/07/07 02:52:09;;;;;;;8.80;4.87;;;;;;;29.21;39.65;101020.97;144994;579;5002;-81
2021/07/07 02:54:35;;;;;;;7.93;5.03;;;;;;;29.20;39.78;101018.38;144994;648;5002;-81
2021/07/07 02:57:02;;;;;;;7.30;4.97;;;;;;;29.20;39.64;101035.28;144994;599;5002;-81
2021/07/07 02:59:28;;;;;;;6.62;4.57;;;;;;;29.21;39.61;101025.47;144994;577;5002;-80
2021/07/07 03:01:55;;;;;;;5.95;5.07;;;;;;;29.21;39.55;101033.50;144994;657;5002;-81
2021/07/07 03:04:21;;;;;;;8.70;5.37;;;;;;;29.22;39.77;101030.72;144994;595;5003;-81
2021/07/07 03:06:48;;;;;;;6.78;5.20;;;;;;;29.22;39.77;101029.87;144994;579;5002;-80
2021/07/07 03:09:14;;;;;;;11.77;5.47;;;;;;;29.23;39.71;101031.62;144994;587;5002;-80
2021/07/07 03:11:41;;;;;;;9.20;5.28;;;;;;;29.21;39.73;101031.69;144994;636;5003;-81
2021/07/07 03:14:07;;;;;;;7.35;5.32;;;;;;;29.22;39.89;101025.38;144994;645;5002;-81
2021/07/07 03:16:57;;;;;;;5.93;5.30;;;;;;;29.24;39.88;101039.56;144994;589;5002;-78
2021/07/07 03:19:26;;;;;;;13.43;5.32;;;;;;;29.32;39.86;101041.91;144994;586;5002;-81
2021/07/07 03:21:52;;;;;;;7.95;5.28;;;;;;;29.31;39.69;101037.50;144994;596;5002;-81
2021/07/07 03:24:18;;;;;;;9.65;5.95;;;;;;;29.24;40.04;101039.56;144994;569;5002;-81
2021/07/07 03:26:45;;;;;;;8.20;5.70;;;;;;;29.25;39.76;101037.75;144994;724;5002;-81
2021/07/07 03:29:11;;;;;;;12.23;5.93;;;;;;;29.23;39.91;101043.16;144994;589;5002;-81
2021/07/07 03:31:38;;;;;;;10.38;6.40;;;;;;;29.20;40.01;101048.62;144994;657;5002;-81
2021/07/07 03:34:04;;;;;;;6.07;5.30;;;;;;;29.21;40.17;101047.72;144994;600;5002;-80
2021/07/07 03:36:31;;;;;;;9.77;6.15;;;;;;;29.17;40.16;101054.09;144994;596;5002;-81
2021/07/07 03:38:57;;;;;;;8.02;6.07;;;;;;;29.15;40.19;101047.94;144994;577;5002;-81
2021/07/07 03:41:24;;;;;;;7.40;5.35;;;;;;;29.11;40.44;101049.00;144994;638;5002;-81
2021/07/07 03:43:50;;;;;;;7.62;5.80;;;;;;;29.07;40.45;101044.72;144994;614;5002;-80
2021/07/07 03:46:17;;;;;;;12.07;5.75;;;;;;;29.03;40.20;101051.13;144994;590;5002;-82
2021/07/07 03:48:44;;;;;;;7.40;5.40;;;;;;;29.03;40.38;101053.81;144994;592;5002;-81
2021/07/07 03:51:10;;;;;;;7.85;5.43;;;;;;;29.06;40.40;101051.00;144994;570;5002;-82
2021/07/07 03:53:37;;;;;;;8.02;5.47;;;;;;;29.09;40.26;101050.87;144994;585;5002;-81
2021/07/07 03:56:04;;;;;;;7.57;5.72;;;;;;;29.11;40.18;101054.34;144994;706;5002;-80
2021/07/07 03:58:30;;;;;;;8.93;6.00;;;;;;;29.12;39.90;101054.28;144994;573;5002;-81
2021/07/07 04:00:57;;;;;;;7.18;5.45;;;;;;;29.15;40.13;101053.28;144994;594;5002;-81
2021/07/07 04:03:23;;;;;;;6.55;5.50;;;;;;;29.19;39.81;101056.72;144994;657;5003;-82
2021/07/07 04:05:50;;;;;;;10.95;5.50;;;;;;;29.21;39.75;101054.88;144994;576;5002;-81
2021/07/07 04:08:16;;;;;;;6.28;5.65;;;;;;;29.24;39.71;101060.94;144994;629;5002;-81
2021/07/07 04:10:42;;;;;;;7.32;5.75;;;;;;;29.27;39.63;101055.47;144994;569;5002;-80
2021/07/07 04:13:09;;;;;;;7.03;5.47;;;;;;;29.29;39.63;101058.09;144994;701;5002;-80
2021/07/07 04:15:35;;;;;;;8.57;5.57;;;;;;;29.33;39.68;101066.84;144994;700;5002;-81
2021/07/07 04:18:03;;;;;;;6.72;5.30;;;;;;;29.35;39.76;101068.50;144994;576;5002;-81
2021/07/07 04:20:30;;;;;;;9.75;5.95;;;;;;;29.40;39.65;101068.28;144994;651;5002;-81
2021/07/07 04:22:56;;;;;;;14.70;7.03;;;;;;;29.44;39.63;101069.91;144994;641;5002;-81
2021/07/07 04:25:23;;;;;;;9.57;7.50;;;;;;;29.46;39.59;101063.56;144994;574;5002;-82
2021/07/07 04:27:49;;;;;;;8.25;6.28;;;;;;;29.47;39.91;101070.63;144994;651;5002;-81
2021/07/07 04:30:19;;;;;;;8.10;5.50;;;;;;;29.50;40.09;101069.62;144994;597;5002;-82
2021/07/07 04:32:47;;;;;;;8.27;5.93;;;;;;;29.54;40.08;101067.69;144994;661;5002;-82
2021/07/07 04:35:16;;;;;;;12.90;5.75;;;;;;;29.56;39.76;101074.72;144994;610;5002;-81
2021/07/07 04:37:44;;;;;;;10.75;5.28;;;;;;;29.59;39.69;101069.25;144994;569;5002;-81
2021/07/07 04:40:11;;;;;;;10.25;5.80;;;;;;;29.63;39.62;101078.84;144994;579;5002;-81
2021/07/07 04:42:38;;;;;;;11.82;5.68;;;;;;;29.66;40.04;101075.19;144994;753;5002;-81
2021/07/07 04:45:06;;;;;;;10.90;6.43;;;;;;;29.57;40.48;101084.47;144994;571;5002;-81
2021/07/07 04:47:33;;;;;;;10.35;6.37;;;;;;;29.48;40.51;101077.72;144994;600;5002;-81
2021/07/07 04:49:59;;;;;;;17.90;6.85;;;;;;;29.51;40.74;101079.41;144994;647;5002;-79
2021/07/07 04:52:26;;;;;;;9.18;6.87;;;;;;;29.55;40.84;101080.13;144994;663;5002;-82
2021/07/07 04:54:52;;;;;;;14.38;7.28;;;;;;;29.59;40.51;101084.41;144994;592;5002;-81
2021/07/07 04:57:19;;;;;;;15.60;7.12;;;;;;;29.59;40.67;101089.75;144994;615;5002;-80
2021/07/07 04:59:45;;;;;;;18.80;6.95;;;;;;;29.60;41.00;101091.50;144994;573;5002;-81
2021/07/07 05:02:12;;;;;;;17.33;7.25;;;;;;;29.58;40.70;101094.22;144994;586;5002;-82
2021/07/07 05:04:39;;;;;;;15.25;7.30;;;;;;;29.60;40.79;101095.03;144994;564;5002;-81
2021/07/07 05:07:05;;;;;;;15.45;7.50;;;;;;;29.60;41.86;101100.38;144994;622;5002;-81
2021/07/07 05:09:31;;;;;;;14.87;6.80;;;;;;;29.58;41.27;101098.72;144994;671;5002;-81
2021/07/07 05:11:58;;;;;;;16.25;7.12;;;;;;;29.60;41.06;101100.38;144994;641;5002;-80
2021/07/07 05:14:25;;;;;;;12.35;7.43;;;;;;;29.62;41.61;101106.56;144994;569;5002;-80
2021/07/07 05:16:51;;;;;;;15.02;7.25;;;;;;;29.61;41.82;101109.28;144994;600;5002;-79
2021/07/07 05:19:18;;;;;;;12.20;6.80;;;;;;;29.57;41.58;101110.34;144994;565;5002;-79
2021/07/07 05:21:44;;;;;;;13.73;7.10;;;;;;;29.51;41.76;101106.16;144994;598;5002;-79
2021/07/07 05:24:11;;;;;;;16.12;6.97;;;;;;;29.48;42.05;101115.16;144994;594;5002;-81
2021/07/07 05:26:37;;;;;;;8.70;6.60;;;;;;;29.29;43.21;101108.88;144994;650;5002;-81
2021/07/07 05:29:04;;;;;;;13.40;7.25;;;;;;;29.20;42.71;101107.44;144994;576;5002;-82
2021/07/07 05:31:31;;;;;;;8.50;6.45;;;;;;;29.22;42.85;101112.72;144994;570;5002;-81
2021/07/07 05:33:57;;;;;;;14.68;7.07;;;;;;;29.11;45.10;101124.72;144994;571;5002;-80
2021/07/07 05:36:24;;;;;;;12.18;7.05;;;;;;;29.08;43.65;101121.28;144994;731;5002;-81
2021/07/07 05:38:51;;;;;;;10.40;6.65;;;;;;;29.13;43.73;101120.16;144994;608;5002;-80
2021/07/07 05:41:17;;;;;;;7.45;6.18;;;;;;;29.24;43.79;101121.53;144994;564;5002;-81
2021/07/07 05:43:44;;;;;;;7.32;6.55;;;;;;;29.33;43.96;101117.63;144994;671;5002;-81
2021/07/07 05:46:11;;;;;;;7.78;6.87;;;;;;;29.36;44.08;101120.16;144994;591;5002;-80
2021/07/07 05:48:39;;;;;;;7.97;6.45;;;;;;;29.38;44.33;101119.19;144994;585;5002;-80
2021/07/07 05:51:09;;;;;;;10.40;7.80;;;;;;;29.44;44.26;101124.25;144994;563;5002;-79
2021/07/07 05:53:36;;;;;;;7.82;6.90;;;;;;;29.56;43.94;101128.22;144994;565;5002;-81
2021/07/07 05:56:02;;;;;;;9.68;6.97;;;;;;;29.77;43.72;101126.41;144994;578;5002;-81
2021/07/07 05:58:28;;;;;;;9.70;7.10;;;;;;;29.74;44.24;101123.00;144994;691;4567;-80
2021/07/07 06:00:55;;;;;;;10.73;6.87;;;;;;;29.84;43.92;101121.66;144994;585;4572;-82
2021/07/07 06:03:21;;;;;;;11.57;6.65;;;;;;;29.91;44.17;101125.81;144991;678;6002;-81
2021/07/07 06:05:48;;;;;;;7.93;6.47;;;;;;;30.00;44.07;101129.88;144992;575;6002;-82
2021/07/07 06:08:14;;;;;;;11.48;7.28;;;;;;;30.14;43.85;101134.59;144992;585;6002;-83
2021/07/07 06:10:42;;;;;;;12.00;6.97;;;;;;;30.29;43.81;101133.03;144992;570;6003;-81
2021/07/07 06:13:09;;;;;;;17.98;7.78;;;;;;;30.12;46.93;101137.34;144992;619;6002;-81
2021/07/07 06:15:36;;;;;;;11.60;7.32;;;;;;;30.07;47.49;101133.13;144992;571;6002;-81
2021/07/07 06:18:08;;;;;;;10.25;7.57;;;;;;;29.91;47.72;101131.16;144992;709;6002;-82
2021/07/07 06:20:36;;;;;;;9.15;6.65;;;;;;;30.00;45.83;101129.88;144992;732;6002;-83
2021/07/07 06:23:03;;;;;;;9.93;6.78;;;;;;;30.11;45.22;101137.41;144992;578;6002;-80
2021/07/07 06:25:30;;;;;;;8.43;7.07;;;;;;;30.14;47.98;101142.63;144992;584;6002;-81
2021/07/07 06:27:56;;;;;;;8.93;6.87;;;;;;;30.19;46.03;101143.28;144992;569;6002;-81
2021/07/07 06:30:25;;;;;;;10.20;6.70;;;;;;;30.28;45.29;101134.84;144992;595;6002;-81
2021/07/07 06:32:53;;;;;;;10.88;6.60;;;;;;;30.21;47.33;101138.75;144992;648;6002;-81
2021/07/07 06:35:20;;;;;;;9.43;6.68;;;;;;;30.21;45.56;101138.75;144992;570;6002;-81
2021/07/07 06:37:48;;;;;;;8.27;7.10;;;;;;;30.13;46.02;101140.88;144992;566;6002;-81
2021/07/07 06:40:16;;;;;;;9.82;7.43;;;;;;;30.16;46.17;101140.75;144992;600;6002;-81
2021/07/07 06:42:44;;;;;;;7.75;7.03;;;;;;;30.24;45.59;101146.63;144992;575;6002;-81
2021/07/07 06:45:11;;;;;;;8.43;6.85;;;;;;;30.25;46.17;101151.03;144992;582;6002;-81
2021/07/07 06:47:39;;;;;;;8.75;6.72;;;;;;;30.17;46.46;101153.22;144992;591;6002;-81
2021/07/07 06:50:08;;;;;;;7.82;6.97;;;;;;;30.23;46.63;101141.38;144992;566;6002;-81
2021/07/07 06:52:35;;;;;;;8.30;7.18;;;;;;;30.27;46.20;101151.84;144992;610;6002;-81
2021/07/07 06:55:03;;;;;;;8.98;6.97;;;;;;;30.22;46.30;101140.47;144992;621;6002;-81
2021/07/07 06:57:34;;;;;;;7.65;6.93;;;;;;;30.29;47.38;101141.94;144992;642;6002;-81
2021/07/07 07:00:14;;;;;;;8.52;6.80;;;;;;;30.18;47.96;101141.56;144992;580;6002;-81
2021/07/07 07:02:41;;;;;;;11.07;7.62;;;;;;;30.16;48.69;101141.63;144992;593;6003;-82
2021/07/07 07:05:09;;;;;;;8.60;7.18;;;;;;;30.15;48.73;101141.72;144992;569;6002;-81
2021/07/07 07:07:36;;;;;;;10.90;7.53;;;;;;;30.07;49.86;101147.41;144992;608;6002;-80
2021/07/07 07:10:05;;;;;;;9.18;7.07;;;;;;;29.91;52.70;101149.00;144992;576;6003;-81
2021/07/07 07:12:31;;;;;;;7.93;7.15;;;;;;;30.11;49.72;101145.44;144992;565;6002;-81
2021/07/07 07:14:58;;;;;;;8.50;6.95;;;;;;;30.05;50.43;101145.72;144992;592;6002;-80
2021/07/07 07:17:26;;;;;;;8.93;8.07;;;;;;;29.98;52.61;101154.03;144992;564;6002;-81
2021/07/07 07:19:52;;;;;;;8.73;7.25;;;;;;;29.95;50.18;101146.13;144992;679;6002;-81
2021/07/07 07:22:19;;;;;;;8.45;6.97;;;;;;;29.92;50.08;101143.59;144992;662;6002;-81
2021/07/07 07:24:45;;;;;;;8.75;6.47;;;;;;;29.99;49.59;101147.75;144992;589;6002;-80
2021/07/07 07:27:12;;;;;;;7.07;6.43;;;;;;;30.04;48.63;101147.53;144992;573;6002;-80
2021/07/07 07:29:41;;;;;;;6.93;6.20;;;;;;;29.75;49.61;101143.44;144992;577;6002;-79
2021/07/07 07:32:08;;;;;;;7.40;6.57;;;;;;;29.73;49.43;101142.66;144992;590;6002;-80
2021/07/07 07:34:35;;;;;;;9.68;6.28;;;;;;;29.80;50.71;101149.50;144992;564;6002;-81
2021/07/07 07:37:02;;;;;;;8.30;6.82;;;;;;;29.74;51.19;101155.09;144992;595;6002;-80
2021/07/07 07:42:19;;;;;;;9.20;6.60;;;;;;;29.87;49.66;101150.97;144992;575;6004;-80
2021/07/07 07:44:47;;;;;;;11.05;6.90;;;;;;;29.91;49.75;101152.56;144992;602;6004;-80
2021/07/07 07:47:15;;;;;;;11.40;7.10;;;;;;;29.90;50.33;101150.81;144992;569;6004;-81
2021/07/07 07:49:42;;;;;;;12.23;6.55;;;;;;;29.96;50.05;101149.69;144992;638;6004;-79
2021/07/07 07:52:08;;;;;;;9.10;6.85;;;;;;;29.97;49.34;101148.75;144992;590;6004;-81
2021/07/07 07:54:35;;;;;;;7.72;6.22;;;;;;;29.98;49.32;101146.00;144992;619;6005;-81
2021/07/07 07:57:02;;;;;;;8.48;6.90;;;;;;;30.07;49.58;101160.78;144992;629;6004;-81
2021/07/07 07:59:29;;;;;;;7.90;7.10;;;;;;;30.21;49.22;101155.69;144992;585;6004;-80
2021/07/07 08:01:55;;;;;;;10.55;6.75;;;;;;;30.07;50.56;101154.53;144991;604;6000;-81
2021/07/07 08:04:22;;;;;;;12.95;7.00;;;;;;;29.97;50.03;101154.97;144992;576;6002;-81
2021/07/07 08:06:49;;;;;;;10.00;7.68;;;;;;;30.00;51.53;101162.87;144992;585;6002;-80
2021/07/07 08:09:15;;;;;;;10.32;7.78;;;;;;;30.23;50.41;101160.97;144992;567;6003;-80
2021/07/07 08:11:43;;;;;;;8.77;6.65;;;;;;;30.38;50.07;101171.00;144992;564;6002;-79
2021/07/07 08:14:09;;;;;;;7.43;6.72;;;;;;;30.56;49.52;101163.06;144992;585;6002;-80
2021/07/07 08:16:36;;;;;;;7.47;6.78;;;;;;;30.56;49.61;101173.78;144992;653;6002;-80
2021/07/07 08:19:09;;;;;;;7.32;6.55;;;;;;;30.74;48.84;101174.69;144992;597;6002;-80
2021/07/07 08:21:36;;;;;;;8.20;6.28;;;;;;;30.79;48.54;101174.47;144992;601;6002;-80
2021/07/07 08:24:04;;;;;;;8.02;6.78;;;;;;;30.82;48.44;101166.31;144992;575;6002;-82
2021/07/07 08:26:30;;;;;;;8.88;6.18;;;;;;;30.94;47.97;101165.69;144992;573;6002;-80
2021/07/07 08:28:58;;;;;;;7.10;6.40;;;;;;;30.92;48.18;101159.53;144992;580;6002;-80
2021/07/07 08:31:26;;;;;;;7.60;6.85;;;;;;;30.89;48.38;101165.03;144992;627;6002;-81
2021/07/07 08:33:54;;;;;;;7.28;6.18;;;;;;;30.97;47.72;101164.72;144992;594;6002;-80
2021/07/07 08:36:23;;;;;;;8.18;5.82;;;;;;;30.92;47.67;101165.75;144992;576;6002;-81
2021/07/07 08:38:50;;;;;;;6.97;5.72;;;;;;;30.99;47.51;101165.50;144992;640;6002;-80
2021/07/07 08:41:17;;;;;;;6.43;5.70;;;;;;;31.09;46.66;101172.16;144992;598;6002;-80
2021/07/07 08:43:44;;;;;;;7.60;6.12;;;;;;;31.12;45.97;101166.66;144991;569;6002;-79
2021/07/07 08:46:11;;;;;;;10.02;5.90;;;;;;;31.18;45.88;101168.13;144992;569;6002;-79
2021/07/07 08:48:37;;;;;;;6.62;5.32;;;;;;;31.30;44.67;101170.22;144992;569;6002;-81
2021/07/07 08:51:04;;;;;;;5.85;4.90;;;;;;;31.32;44.35;101167.47;144992;619;6002;-81
2021/07/07 08:53:35;;;;;;;6.10;5.28;;;;;;;31.34;43.55;101163.75;144992;597;6002;-81
2021/07/07 08:56:02;;;;;;;5.80;5.25;;;;;;;31.37;43.46;101168.97;144991;660;6002;-80
2021/07/07 08:58:28;;;;;;;6.10;4.78;;;;;;;31.36;40.91;101169.06;144992;592;6002;-81
2021/07/07 09:00:59;;;;;;;6.53;5.47;;;;;;;31.46;42.34;101170.31;144992;641;6002;-82
2021/07/07 09:03:25;;;;;;;7.55;5.85;;;;;;;31.52;41.66;101167.31;144992;618;6002;-81
2021/07/07 09:05:58;;;;;;;6.05;5.30;;;;;;;31.54;41.73;101167.25;144992;623;6002;-81
2021/07/07 09:08:48;;;;;;;7.95;5.20;;;;;;;31.60;40.62;101166.97;144992;621;6002;-81
2021/07/07 09:11:22;;;;;;;5.25;4.85;;;;;;;31.69;40.50;101163.81;144992;597;6004;-82
2021/07/07 09:14:10;;;;;;;5.12;4.72;;;;;;;31.62;40.91;101165.91;144992;574;6004;-81
2021/07/07 09:16:48;;;;;;;5.87;5.15;;;;;;;31.69;40.94;101166.47;144992;602;6003;-81
2021/07/07 09:19:18;;;;;;;8.05;5.60;;;;;;;31.67;38.93;101167.50;144992;574;6002;-81
2021/07/07 09:21:53;;;;;;;7.07;5.62;;;;;;;31.83;40.78;101176.47;144992;571;6002;-81
2021/07/07 09:24:23;;;;;;;8.07;4.90;;;;;;;31.88;40.26;101171.75;144992;570;6003;-81
2021/07/07 09:27:01;;;;;;;5.87;5.00;;;;;;;31.78;39.34;101165.13;144992;624;6002;-82
2021/07/07 09:29:42;;;;;;;6.93;4.85;;;;;;;31.90;39.03;101163.63;144992;595;6002;-82
2021/07/07 09:32:20;;;;;;;6.80;4.75;;;;;;;31.96;37.10;101166.84;144992;604;6002;-81
2021/07/07 09:34:52;;;;;;;9.73;5.35;;;;;;;32.06;36.90;101153.78;144992;585;6002;-82
2021/07/07 09:37:28;;;;;;;8.98;5.28;;;;;;;32.16;37.41;101163.09;144992;631;6002;-82
2021/07/07 09:39:56;;;;;;;10.80;5.75;;;;;;;32.13;36.24;101157.91;144992;632;6002;-81
2021/07/07 09:42:34;;;;;;;6.65;4.55;;;;;;;32.32;36.77;101156.91;144992;566;6002;-81
2021/07/07 09:45:04;;;;;;;5.12;4.25;;;;;;;32.35;34.85;101162.13;144992;599;6002;-81
2021/07/07 09:47:31;;;;;;;4.50;4.10;;;;;;;32.39;35.63;101162.81;144992;576;6002;-81
2021/07/07 09:49:58;;;;;;;5.62;4.20;;;;;;;32.29;34.96;101163.31;144992;670;6002;-81
2021/07/07 09:52:27;;;;;;;4.97;4.50;;;;;;;32.30;34.94;101159.69;144992;599;6002;-80
2021/07/07 09:54:55;;;;;;;4.75;3.80;;;;;;;32.26;33.71;101159.94;144992;586;6002;-80
2021/07/07 09:57:22;;;;;;;4.78;4.37;;;;;;;32.24;34.31;101154.63;144991;591;6002;-79
2021/07/07 09:59:50;;;;;;;6.87;4.85;;;;;;;32.12;34.32;101144.56;144992;584;6002;-81
2021/07/07 10:02:17;;;;;;;4.80;4.40;;;;;;;32.18;35.28;101152.28;144992;600;6002;-81
2021/07/07 10:04:44;;;;;;;5.53;4.60;;;;;;;32.22;35.54;101150.31;144992;625;6002;-80
2021/07/07 10:07:14;;;;;;;7.43;4.85;;;;;;;32.26;35.33;101151.87;144992;592;6002;-80
2021/07/07 10:09:45;;;;;;;6.55;5.18;;;;;;;32.22;34.22;101153.00;144992;638;6002;-80
2021/07/07 10:12:12;;;;;;;6.95;5.95;;;;;;;32.22;34.88;101156.56;144992;646;6002;-80
2021/07/07 10:14:39;;;;;;;6.53;5.32;;;;;;;32.24;35.56;101145.72;144992;697;6002;-79
2021/07/07 10:17:06;;;;;;;12.02;8.95;;;;;;;32.31;35.96;101147.09;144992;582;6002;-80
2021/07/07 10:19:32;;;;;;;5.93;5.43;;;;;;;32.21;36.79;101148.56;144992;662;6002;-81
2021/07/07 10:21:58;;;;;;;6.07;5.47;;;;;;;32.32;36.33;101146.16;144992;674;6002;-82
2021/07/07 10:24:31;;;;;;;7.70;5.20;;;;;;;32.58;35.85;101138.47;144992;611;6002;-82
2021/07/07 10:27:05;;;;;;;6.45;5.57;;;;;;;32.65;36.04;101147.97;144992;619;6002;-80
2021/07/07 10:29:34;;;;;;;7.80;5.80;;;;;;;32.60;36.65;101145.50;144992;591;6002;-81
2021/07/07 10:32:05;;;;;;;8.05;5.57;;;;;;;32.59;36.38;101142.91;144992;631;6002;-80
2021/07/07 10:34:32;;;;;;;6.03;5.53;;;;;;;32.63;36.51;101136.38;144992;696;6002;-81
2021/07/07 10:37:01;;;;;;;5.87;5.37;;;;;;;32.49;35.33;101138.03;144992;647;6002;-81
2021/07/07 10:39:28;;;;;;;8.45;6.05;;;;;;;32.40;35.61;101138.53;144992;591;6002;-82
2021/07/07 10:42:02;;;;;;;8.63;4.80;;;;;;;32.59;34.86;101137.53;144992;696;6002;-81
2021/07/07 10:44:49;;;;;;;8.00;4.70;;;;;;;32.58;35.04;101133.09;144992;590;6002;-81
2021/07/07 10:47:16;;;;;;;5.70;5.10;;;;;;;32.45;34.91;101131.09;144992;602;6006;-81
2021/07/07 10:49:54;;;;;;;6.12;4.40;;;;;;;32.43;35.56;101142.88;144992;654;6004;-80
2021/07/07 10:52:49;;;;;;;5.28;4.72;;;;;;;32.40;37.08;101137.69;144992;566;6004;-81
2021/07/07 10:55:16;;;;;;;;;;;;;;;32.39;37.22;101135.94;144997;914;6002;-81
2021/07/07 10:57:45;;;;;;;5.50;4.30;;;;;;;32.26;38.21;101143.81;144997;687;6002;-81
2021/07/07 11:00:30;;;;;;;6.70;5.12;;;;;;;32.16;39.07;101146.13;144992;569;6002;-81
2021/07/07 11:03:19;;;;;;;6.37;4.82;;;;;;;32.14;41.56;101131.94;144992;685;6002;-82
2021/07/07 11:05:46;;;;;;;4.93;4.53;;;;;;;31.93;44.16;101132.09;144992;636;6004;-81
2021/07/07 11:08:20;;;;;;;5.40;4.93;;;;;;;31.89;45.67;101133.22;144992;686;6004;-82
2021/07/07 11:11:20;;;;;;;5.37;4.85;;;;;;;31.78;46.75;101136.47;144992;589;6004;-80
2021/07/07 11:13:48;;;;;;;5.55;5.05;;;;;;;31.70;47.85;101137.81;144992;591;6002;-80
2021/07/07 11:16:18;;;;;;;5.70;5.20;;;;;;;31.63;48.86;101135.47;144992;623;6002;-80
2021/07/07 11:18:46;;;;;;;7.95;6.20;;;;;;;31.53;49.88;101130.66;144992;625;6002;-81
2021/07/07 11:21:14;;;;;;;6.25;5.72;;;;;;;31.52;53.81;101128.91;144992;591;6002;-82
2021/07/07 11:23:41;;;;;;;6.75;5.55;;;;;;;31.60;49.66;101132.94;144992;672;6002;-79
2021/07/07 11:26:08;;;;;;;7.47;5.07;;;;;;;31.70;46.53;101132.47;144992;652;6002;-81
2021/07/07 11:28:35;;;;;;;6.28;5.10;;;;;;;31.63;45.50;101123.88;144992;575;6002;-82
2021/07/07 11:31:02;;;;;;;9.32;5.57;;;;;;;31.67;44.92;101127.25;144992;564;6011;-81
2021/07/07 11:33:29;;;;;;;5.53;5.03;;;;;;;31.60;46.28;101132.94;144992;642;6002;-80
2021/07/07 11:35:56;;;;;;;6.12;4.78;;;;;;;31.65;44.76;101130.00;144992;631;6002;-79
2021/07/07 11:38:28;;;;;;;8.82;5.32;;;;;;;31.63;44.97;101118.50;144992;576;6002;-83